Time;durP1;ratioP1;P1;durP2;ratioP2;P2;SDS_P1;SDS_P2;PMS_P1;PMS_P2;Temp;Humidity;BMP_temperature;BMP_pressure;BME280_temperature;BME280_humidity;BME280_pressure;Samples;Min_cycle;Max_cycle;Signal;HPM_P1;HPM_P2
2023/05/03 00:00:07;;;;;;;;;;;9.00;59.10;;;;;;8390033;28;19931;-69
2023/05/03 00:04:08;;;;;;;;;;;8.90;59.30;;;;;;8404498;28;19939;-69
2023/05/03 00:08:10;;;;;;;;;;;8.80;59.50;;;;;;8383040;28;19925;-69
2023/05/03 00:12:12;;;;;;;;;;;8.70;59.60;;;;;;8387735;28;19928;-69
2023/05/03 00:16:13;;;;;;;;;;;8.60;59.60;;;;;;8402622;28;19924;-69
2023/05/03 00:20:16;;;;;;;;;;;8.60;59.80;;;;;;8413663;28;19932;-69
2023/05/03 00:24:18;;;;;;;;;;;8.60;59.90;;;;;;8382318;28;19929;-69
2023/05/03 00:28:19;;;;;;;;;;;8.50;60.00;;;;;;8396725;28;19924;-69
2023/05/03 00:32:21;;;;;;;;;;;8.50;60.20;;;;;;8394281;28;19972;-69
2023/05/03 00:36:23;;;;;;;;;;;8.40;60.20;;;;;;8381619;28;19928;-69
2023/05/03 00:40:25;;;;;;;;;;;8.40;60.50;;;;;;8390577;28;19964;-70
2023/05/03 00:44:27;;;;;;;;;;;8.30;60.60;;;;;;8383836;28;19935;-69
2023/05/03 00:48:28;;;;;;;;;;;8.20;60.80;;;;;;8386095;28;19937;-69
2023/05/03 00:52:30;;;;;;;;;;;8.10;61.00;;;;;;8402764;28;19975;-69
2023/05/03 00:56:32;;;;;;;;;;;8.00;61.20;;;;;;8402601;28;20041;-69
2023/05/03 01:00:45;;;;;;;;;;;7.90;61.60;;;;;;8410182;28;19930;-69
2023/05/03 01:15:13;;;;;;;;;;;7.70;62.10;;;;;;8395846;28;19920;-69
2023/05/03 01:19:38;;;;;;;;;;;7.60;62.30;;;;;;8400651;28;19932;-69
2023/05/03 01:23:58;;;;;;;;;;;7.60;62.50;;;;;;8385451;28;20356;-69
2023/05/03 01:28:00;;;;;;;;;;;7.60;63.00;;;;;;8393402;28;20879;-69
2023/05/03 01:32:05;;;;;;;;;;;7.50;63.10;;;;;;8370828;28;19973;-69
2023/05/03 01:36:11;;;;;;;;;;;7.40;63.10;;;;;;8395857;28;20268;-69
2023/05/03 01:40:15;;;;;;;;;;;7.30;63.30;;;;;;8401580;28;19982;-69
2023/05/03 01:44:18;;;;;;;;;;;7.30;63.40;;;;;;8383386;28;19932;-69
2023/05/03 01:48:19;;;;;;;;;;;7.20;63.50;;;;;;8372419;28;19929;-69
2023/05/03 01:52:22;;;;;;;;;;;7.20;63.50;;;;;;8384313;28;19964;-69
2023/05/03 01:56:23;;;;;;;;;;;7.10;63.60;;;;;;8387301;28;19924;-69
2023/05/03 02:00:25;;;;;;;;;;;7.00;63.80;;;;;;8374840;28;20613;-69
2023/05/03 02:04:27;;;;;;;;;;;7.00;64.00;;;;;;8383902;28;20023;-69
2023/05/03 02:08:29;;;;;;;;;;;6.90;64.00;;;;;;8387915;28;19994;-69
2023/05/03 02:12:31;;;;;;;;;;;6.80;64.10;;;;;;8404783;28;20391;-69
2023/05/03 02:16:32;;;;;;;;;;;6.80;64.30;;;;;;8398798;28;19935;-69
2023/05/03 02:20:36;;;;;;;;;;;6.70;64.40;;;;;;8379627;28;19925;-69
2023/05/03 02:24:38;;;;;;;;;;;6.60;64.30;;;;;;8380268;28;19963;-69
2023/05/03 02:28:40;;;;;;;;;;;6.60;64.40;;;;;;8404663;28;19929;-69
2023/05/03 02:32:42;;;;;;;;;;;6.50;64.30;;;;;;8398974;28;20001;-69
2023/05/03 02:36:43;;;;;;;;;;;6.40;64.10;;;;;;8382877;28;20339;-69
2023/05/03 02:40:45;;;;;;;;;;;6.40;64.00;;;;;;8397854;28;19939;-69
2023/05/03 02:44:47;;;;;;;;;;;6.30;64.00;;;;;;8381965;28;19933;-69
2023/05/03 02:48:49;;;;;;;;;;;6.20;63.90;;;;;;8393795;28;19924;-69
2023/05/03 02:52:50;;;;;;;;;;;6.20;64.00;;;;;;8403979;28;19935;-69
2023/05/03 02:56:52;;;;;;;;;;;6.10;63.80;;;;;;8400692;28;20391;-69
2023/05/03 03:00:53;;;;;;;;;;;6.10;64.00;;;;;;8395003;28;19979;-69
2023/05/03 03:04:55;;;;;;;;;;;6.10;64.00;;;;;;8402874;28;19942;-69
2023/05/03 03:08:56;;;;;;;;;;;6.20;64.20;;;;;;8420162;28;20368;-69
2023/05/03 03:12:58;;;;;;;;;;;6.20;64.40;;;;;;8403886;28;20392;-69
2023/05/03 03:17:02;;;;;;;;;;;6.20;64.40;;;;;;8397521;28;20266;-69
2023/05/03 03:21:03;;;;;;;;;;;6.30;64.30;;;;;;8392533;28;19978;-69
2023/05/03 03:25:05;;;;;;;;;;;6.30;64.10;;;;;;8398183;28;19925;-69
2023/05/03 03:29:08;;;;;;;;;;;6.20;64.10;;;;;;8396565;28;19978;-69
2023/05/03 03:33:10;;;;;;;;;;;6.20;64.20;;;;;;8397636;28;20391;-69
2023/05/03 03:37:12;;;;;;;;;;;6.20;64.20;;;;;;8404069;28;20327;-69
2023/05/03 03:41:14;;;;;;;;;;;6.00;64.30;;;;;;8397815;28;20346;-69
2023/05/03 03:45:15;;;;;;;;;;;5.90;64.40;;;;;;8382242;28;19924;-69
2023/05/03 03:49:17;;;;;;;;;;;5.90;64.50;;;;;;8405586;28;19972;-69
2023/05/03 03:53:19;;;;;;;;;;;5.80;64.50;;;;;;8423031;28;19927;-69
2023/05/03 03:57:20;;;;;;;;;;;5.80;64.60;;;;;;8393751;28;19930;-69
2023/05/03 04:01:22;;;;;;;;;;;5.70;64.80;;;;;;8394442;28;19924;-69
2023/05/03 04:05:24;;;;;;;;;;;5.70;65.00;;;;;;8377910;28;20353;-69
2023/05/03 04:09:25;;;;;;;;;;;5.60;65.10;;;;;;8412234;28;19924;-69
2023/05/03 04:13:27;;;;;;;;;;;5.60;65.50;;;;;;8406171;28;19924;-69
2023/05/03 04:17:29;;;;;;;;;;;5.50;65.70;;;;;;8423220;28;19971;-69
2023/05/03 04:21:31;;;;;;;;;;;5.50;65.90;;;;;;8400425;28;19925;-69
2023/05/03 04:25:33;;;;;;;;;;;5.40;66.00;;;;;;8407120;28;20355;-69
2023/05/03 04:29:35;;;;;;;;;;;5.40;66.10;;;;;;8417353;28;19924;-69
2023/05/03 04:33:37;;;;;;;;;;;5.40;66.10;;;;;;8381692;28;19932;-69
2023/05/03 04:37:39;;;;;;;;;;;5.40;66.40;;;;;;8402479;28;19924;-69
2023/05/03 04:41:41;;;;;;;;;;;5.30;66.60;;;;;;8392426;28;22004;-69
2023/05/03 04:45:42;;;;;;;;;;;5.40;66.90;;;;;;8395451;28;20322;-69
2023/05/03 04:49:45;;;;;;;;;;;5.50;67.20;;;;;;8413892;28;19924;-69
2023/05/03 04:53:47;;;;;;;;;;;5.50;67.60;;;;;;8397231;28;19978;-69
2023/05/03 04:57:49;;;;;;;;;;;5.60;68.20;;;;;;8381235;28;19960;-69
2023/05/03 05:01:50;;;;;;;;;;;5.60;68.40;;;;;;8403899;28;19982;-69
2023/05/03 05:05:52;;;;;;;;;;;5.70;68.50;;;;;;8379578;28;19963;-69
2023/05/03 05:09:54;;;;;;;;;;;5.70;68.60;;;;;;8389176;28;19955;-69
2023/05/03 05:13:55;;;;;;;;;;;5.80;68.90;;;;;;8396845;28;19931;-69
2023/05/03 05:17:57;;;;;;;;;;;5.90;69.10;;;;;;8408403;28;19924;-69
2023/05/03 05:21:59;;;;;;;;;;;6.00;69.30;;;;;;8417934;28;20387;-69
2023/05/03 05:26:00;;;;;;;;;;;6.10;69.40;;;;;;8376663;28;19967;-69
2023/05/03 05:30:03;;;;;;;;;;;6.20;69.70;;;;;;8403558;28;20002;-69
2023/05/03 05:34:05;;;;;;;;;;;6.40;70.20;;;;;;8390372;28;19978;-69
2023/05/03 05:38:07;;;;;;;;;;;6.50;70.50;;;;;;8384984;28;19986;-69
2023/05/03 05:42:08;;;;;;;;;;;6.70;70.90;;;;;;8388179;28;19939;-71
2023/05/03 05:46:10;;;;;;;;;;;6.90;71.30;;;;;;8372051;28;20388;-69
2023/05/03 05:50:12;;;;;;;;;;;7.10;72.00;;;;;;8359322;28;20019;-69
2023/05/03 05:54:18;;;;;;;;;;;7.30;72.10;;;;;;8358152;28;19925;-69
2023/05/03 05:58:20;;;;;;;;;;;7.40;72.10;;;;;;8382261;28;19925;-69
2023/05/03 06:02:23;;;;;;;;;;;7.70;72.90;;;;;;8364523;28;19924;-69
2023/05/03 06:06:26;;;;;;;;;;;7.80;73.60;;;;;;8365024;28;19929;-69
2023/05/03 06:10:27;;;;;;;;;;;8.00;72.90;;;;;;8379000;28;19932;-69
2023/05/03 06:14:29;;;;;;;;;;;8.20;73.20;;;;;;8373763;28;19924;-69
2023/05/03 06:18:31;;;;;;;;;;;8.30;74.10;;;;;;8358085;28;20015;-69
2023/05/03 06:22:32;;;;;;;;;;;8.50;74.00;;;;;;8359472;28;20051;-68
2023/05/03 06:26:34;;;;;;;;;;;8.60;74.40;;;;;;8356509;28;19932;-69
2023/05/03 06:30:36;;;;;;;;;;;8.80;74.90;;;;;;8358312;28;19925;-69
2023/05/03 06:34:38;;;;;;;;;;;9.00;74.80;;;;;;8346373;28;19927;-69
2023/05/03 06:38:39;;;;;;;;;;;9.10;75.10;;;;;;8363092;28;19975;-69
2023/05/03 06:42:41;;;;;;;;;;;9.30;75.60;;;;;;8357955;28;20004;-69
2023/05/03 06:46:43;;;;;;;;;;;9.50;75.80;;;;;;8359727;28;19964;-69
2023/05/03 06:50:44;;;;;;;;;;;9.60;76.00;;;;;;8360461;28;19962;-70
2023/05/03 06:54:46;;;;;;;;;;;9.70;75.80;;;;;;8362315;28;19968;-69
2023/05/03 06:58:48;;;;;;;;;;;9.80;75.90;;;;;;8352567;28;19935;-68
2023/05/03 07:02:49;;;;;;;;;;;10.00;75.40;;;;;;8361177;28;20555;-69
2023/05/03 07:06:51;;;;;;;;;;;10.10;76.10;;;;;;8358348;28;19940;-69
2023/05/03 07:10:57;;;;;;;;;;;10.30;75.70;;;;;;8361812;28;19968;-69
2023/05/03 07:14:58;;;;;;;;;;;10.40;75.80;;;;;;8365860;28;19972;-69
2023/05/03 07:19:02;;;;;;;;;;;10.40;75.90;;;;;;8357654;28;20699;-69
2023/05/03 07:23:05;;;;;;;;;;;10.60;75.90;;;;;;8363548;28;20336;-69
2023/05/03 07:27:07;;;;;;;;;;;10.70;77.50;;;;;;8360140;28;20360;-69
2023/05/03 07:31:09;;;;;;;;;;;10.90;76.50;;;;;;8361658;28;20011;-69
2023/05/03 07:35:11;;;;;;;;;;;11.00;76.80;;;;;;8361848;28;20023;-69
2023/05/03 07:39:12;;;;;;;;;;;11.10;78.20;;;;;;8363902;28;19936;-69
2023/05/03 07:43:15;;;;;;;;;;;11.20;76.70;;;;;;8367584;28;19932;-69
2023/05/03 07:47:17;;;;;;;;;;;11.30;77.90;;;;;;8364210;28;20011;-69
2023/05/03 07:51:19;;;;;;;;;;;11.40;76.40;;;;;;8373353;28;19970;-69
2023/05/03 07:55:21;;;;;;;;;;;11.60;76.60;;;;;;8363346;28;20027;-69
2023/05/03 07:59:23;;;;;;;;;;;11.80;76.30;;;;;;8363482;28;19929;-69
2023/05/03 08:03:25;;;;;;;;;;;11.90;76.30;;;;;;8358201;28;19931;-69
2023/05/03 08:07:27;;;;;;;;;;;12.10;76.80;;;;;;8360985;28;20015;-69
2023/05/03 08:11:29;;;;;;;;;;;12.30;78.90;;;;;;8362836;28;20380;-69
2023/05/03 08:15:31;;;;;;;;;;;12.30;76.00;;;;;;8375178;28;19975;-69
2023/05/03 08:19:33;;;;;;;;;;;12.30;76.70;;;;;;8357989;28;19931;-69
2023/05/03 08:23:34;;;;;;;;;;;12.40;76.50;;;;;;8362799;28;20374;-69
2023/05/03 08:27:36;;;;;;;;;;;12.60;78.20;;;;;;8363375;28;20019;-69
2023/05/03 08:31:38;;;;;;;;;;;12.70;76.40;;;;;;8354466;28;19931;-69
2023/05/03 08:35:40;;;;;;;;;;;12.70;76.30;;;;;;8377225;28;19925;-69
2023/05/03 08:39:42;;;;;;;;;;;12.80;75.90;;;;;;8366294;28;19929;-69
2023/05/03 08:43:44;;;;;;;;;;;12.90;76.30;;;;;;8357586;28;19933;-69
2023/05/03 08:47:52;;;;;;;;;;;13.00;76.40;;;;;;8354995;28;19932;-69
2023/05/03 08:51:54;;;;;;;;;;;13.20;76.50;;;;;;8363350;28;19999;-69
2023/05/03 08:55:55;;;;;;;;;;;13.30;76.20;;;;;;8354607;28;19931;-69
2023/05/03 09:10:20;;;;;;;;;;;13.70;76.60;;;;;;8363838;28;19920;-69
2023/05/03 09:14:22;;;;;;;;;;;13.90;76.50;;;;;;8373107;28;19956;-69
2023/05/03 09:18:25;;;;;;;;;;;13.90;76.10;;;;;;8360969;28;20403;-69
2023/05/03 09:22:30;;;;;;;;;;;14.00;76.40;;;;;;8362495;28;20658;-69
2023/05/03 09:26:33;;;;;;;;;;;14.20;76.70;;;;;;8346256;28;19925;-70
2023/05/03 09:30:37;;;;;;;;;;;14.40;76.90;;;;;;8339922;28;20393;-69
2023/05/03 09:34:39;;;;;;;;;;;14.50;76.80;;;;;;8342876;28;19929;-70
2023/05/03 09:38:41;;;;;;;;;;;14.70;77.40;;;;;;8360747;28;20032;-70
2023/05/03 09:43:03;;;;;;;;;;;14.90;78.00;;;;;;8367921;28;19929;-70
2023/05/03 09:47:05;;;;;;;;;;;15.00;77.50;;;;;;8360524;28;19964;-70
2023/05/03 09:51:08;;;;;;;;;;;15.20;77.90;;;;;;8362672;28;19987;-69
2023/05/03 09:55:09;;;;;;;;;;;15.30;77.70;;;;;;8362952;28;19967;-69
2023/05/03 09:59:11;;;;;;;;;;;15.40;77.80;;;;;;8364465;28;19932;-69
2023/05/03 10:03:17;;;;;;;;;;;15.50;77.10;;;;;;8356505;28;20016;-69
2023/05/03 10:07:20;;;;;;;;;;;15.60;76.20;;;;;;8358046;28;19925;-70
2023/05/03 10:11:24;;;;;;;;;;;15.50;76.30;;;;;;8374875;28;20283;-69
2023/05/03 10:15:26;;;;;;;;;;;15.70;77.40;;;;;;8357194;28;20415;-69
2023/05/03 10:19:32;;;;;;;;;;;15.80;76.90;;;;;;8361122;28;19933;-69
2023/05/03 10:23:34;;;;;;;;;;;16.10;77.80;;;;;;8361093;28;19933;-69
2023/05/03 10:27:40;;;;;;;;;;;16.40;78.40;;;;;;8363836;28;19932;-70
2023/05/03 10:31:43;;;;;;;;;;;16.70;78.60;;;;;;8358477;28;19929;-69
2023/05/03 10:35:52;;;;;;;;;;;17.10;79.30;;;;;;8359022;28;19968;-70
2023/05/03 10:39:55;;;;;;;;;;;17.50;80.10;;;;;;8359583;28;20011;-69
2023/05/03 10:43:58;;;;;;;;;;;17.90;82.70;;;;;;8358344;28;19932;-70
2023/05/03 10:48:09;;;;;;;;;;;18.20;84.90;;;;;;8358942;28;19932;-70
2023/05/03 10:52:31;;;;;;;;;;;18.40;87.70;;;;;;8358274;28;20015;-70
2023/05/03 10:56:45;;;;;;;;;;;18.60;86.40;;;;;;8360735;28;19936;-70
2023/05/03 11:00:49;;;;;;;;;;;18.80;92.00;;;;;;8358398;28;19951;-70
2023/05/03 11:04:51;;;;;;;;;;;19.00;92.50;;;;;;8355993;28;20019;-70
2023/05/03 11:08:53;;;;;;;;;;;19.30;94.00;;;;;;8365688;28;19925;-70
2023/05/03 11:12:55;;;;;;;;;;;19.70;95.70;;;;;;8367038;28;20379;-70
2023/05/03 11:16:56;;;;;;;;;;;20.10;96.90;;;;;;8381700;28;19929;-70
2023/05/03 11:20:58;;;;;;;;;;;20.40;98.90;;;;;;8367499;28;20019;-70
2023/05/03 11:25:00;;;;;;;;;;;20.50;95.70;;;;;;8363041;28;19928;-70
2023/05/03 11:29:02;;;;;;;;;;;20.60;97.80;;;;;;8364007;28;19928;-70
2023/05/03 11:33:03;;;;;;;;;;;20.70;97.10;;;;;;8380334;28;20261;-70
2023/05/03 11:37:06;;;;;;;;;;;20.80;96.20;;;;;;8365879;28;20040;-70
2023/05/03 11:41:15;;;;;;;;;;;21.00;98.80;;;;;;8367738;28;19971;-70
2023/05/03 11:45:18;;;;;;;;;;;21.00;98.00;;;;;;8361344;28;19974;-70
2023/05/03 11:49:23;;;;;;;;;;;20.80;96.00;;;;;;8336142;28;19954;-70
2023/05/03 11:53:25;;;;;;;;;;;20.70;93.80;;;;;;8357082;28;19991;-70
2023/05/03 11:57:26;;;;;;;;;;;20.80;91.40;;;;;;8357063;28;19928;-70
2023/05/03 12:01:29;;;;;;;;;;;21.00;90.60;;;;;;8355002;28;19931;-70
2023/05/03 12:05:31;;;;;;;;;;;21.30;91.40;;;;;;8340165;28;20011;-70
2023/05/03 12:09:33;;;;;;;;;;;21.70;93.00;;;;;;8356356;28;19936;-70
2023/05/03 12:13:36;;;;;;;;;;;21.90;94.70;;;;;;8357099;28;19929;-70
2023/05/03 12:17:41;;;;;;;;;;;21.90;94.80;;;;;;8355049;28;20007;-70
2023/05/03 12:21:46;;;;;;;;;;;21.80;92.60;;;;;;8351705;28;19933;-70
2023/05/03 12:26:04;;;;;;;;;;;21.70;91.10;;;;;;8355328;28;20386;-70
2023/05/03 12:30:09;;;;;;;;;;;21.40;89.40;;;;;;8353758;28;19972;-70
2023/05/03 12:34:12;;;;;;;;;;;21.30;85.80;;;;;;8357308;28;19935;-70
2023/05/03 12:38:34;;;;;;;;;;;21.10;82.20;;;;;;8356292;28;20347;-70
2023/05/03 12:42:38;;;;;;;;;;;21.00;80.70;;;;;;8356129;28;19982;-70
2023/05/03 12:46:43;;;;;;;;;;;20.90;79.20;;;;;;8370177;28;19987;-70
2023/05/03 12:50:46;;;;;;;;;;;20.80;77.70;;;;;;8358854;28;19933;-70
2023/05/03 12:54:51;;;;;;;;;;;20.80;76.80;;;;;;8382445;28;20404;-70
2023/05/03 12:58:56;;;;;;;;;;;21.00;80.00;;;;;;8363660;28;19932;-70
2023/05/03 13:03:17;;;;;;;;;;;21.50;84.20;;;;;;8354605;28;19979;-70
2023/05/03 13:17:23;;;;;;;;;;;21.40;78.50;;;;;;8357645;28;19924;-70
2023/05/03 13:21:26;;;;;;;;;;;21.30;75.80;;;;;;8345335;28;19925;-70
2023/05/03 13:25:28;;;;;;;;;;;21.20;74.60;;;;;;8361005;28;19931;-70
2023/05/03 13:29:30;;;;;;;;;;;21.20;73.50;;;;;;8364137;28;19960;-70
2023/05/03 13:33:32;;;;;;;;;;;21.10;72.10;;;;;;8360987;28;19928;-70
2023/05/03 13:37:33;;;;;;;;;;;21.20;71.40;;;;;;8362646;28;19925;-70
2023/05/03 13:41:37;;;;;;;;;;;21.20;71.80;;;;;;8361832;28;20404;-70
2023/05/03 13:45:39;;;;;;;;;;;21.60;72.20;;;;;;8358490;28;19936;-70
2023/05/03 13:49:41;;;;;;;;;;;22.30;75.10;;;;;;8363188;28;19924;-70
2023/05/03 13:53:43;;;;;;;;;;;22.80;79.40;;;;;;8363195;28;19936;-70
2023/05/03 13:57:45;;;;;;;;;;;23.20;81.80;;;;;;8361199;28;19935;-70
2023/05/03 14:01:47;;;;;;;;;;;23.80;81.40;;;;;;8355520;28;19978;-70
2023/05/03 14:05:48;;;;;;;;;;;24.50;84.50;;;;;;8357278;28;19968;-70
2023/05/03 14:09:50;;;;;;;;;;;24.90;86.10;;;;;;8358631;28;19978;-70
2023/05/03 14:13:52;;;;;;;;;;;25.10;82.40;;;;;;8353705;28;19932;-70
2023/05/03 14:17:57;;;;;;;;;;;25.30;77.90;;;;;;8367119;28;19929;-70
2023/05/03 14:22:03;;;;;;;;;;;25.40;76.60;;;;;;8341730;28;20365;-70
2023/05/03 14:26:07;;;;;;;;;;;25.30;76.40;;;;;;8364480;28;19929;-70
2023/05/03 14:30:09;;;;;;;;;;;25.00;74.20;;;;;;8362826;28;20428;-70
2023/05/03 14:34:11;;;;;;;;;;;24.80;72.80;;;;;;8359290;28;19925;-70
2023/05/03 14:38:13;;;;;;;;;;;24.60;72.60;;;;;;8361802;28;19929;-70
2023/05/03 14:42:15;;;;;;;;;;;24.70;74.00;;;;;;8360224;28;19978;-70
2023/05/03 14:46:16;;;;;;;;;;;25.20;74.00;;;;;;8362868;28;20356;-70
2023/05/03 14:50:18;;;;;;;;;;;25.90;78.20;;;;;;8366734;28;20266;-71
2023/05/03 14:54:21;;;;;;;;;;;26.60;80.40;;;;;;8369594;28;19935;-71
2023/05/03 14:58:23;;;;;;;;;;;27.20;80.70;;;;;;8370430;28;19928;-71
2023/05/03 15:02:25;;;;;;;;;;;27.60;82.20;;;;;;8358880;28;19966;-71
2023/05/03 15:06:29;;;;;;;;;;;27.50;80.70;;;;;;8357507;28;19964;-71
2023/05/03 15:10:31;;;;;;;;;;;27.70;76.00;;;;;;8367796;28;20283;-71
2023/05/03 15:14:33;;;;;;;;;;;27.90;73.60;;;;;;8365030;28;19935;-71
2023/05/03 15:18:35;;;;;;;;;;;27.90;71.30;;;;;;8366537;28;20027;-71
2023/05/03 15:22:37;;;;;;;;;;;27.90;69.10;;;;;;8363977;28;19928;-71
2023/05/03 15:26:39;;;;;;;;;;;28.30;67.20;;;;;;8365685;28;19972;-71
2023/05/03 15:30:40;;;;;;;;;;;28.70;70.80;;;;;;8366306;28;19929;-71
2023/05/03 15:34:45;;;;;;;;;;;29.00;71.30;;;;;;8364765;28;19925;-71
2023/05/03 15:38:47;;;;;;;;;;;29.30;69.70;;;;;;8362182;28;19983;-71
2023/05/03 15:42:48;;;;;;;;;;;29.50;69.80;;;;;;8364483;28;19968;-71
2023/05/03 15:46:50;;;;;;;;;;;30.00;69.20;;;;;;8368507;28;19972;-71
2023/05/03 15:50:52;;;;;;;;;;;30.30;66.80;;;;;;8363466;28;19978;-71
2023/05/03 15:54:55;;;;;;;;;;;30.50;67.10;;;;;;8368228;28;19983;-71
2023/05/03 15:58:56;;;;;;;;;;;30.80;67.00;;;;;;8366899;28;19933;-71
2023/05/03 16:02:58;;;;;;;;;;;31.10;65.50;;;;;;8359489;28;19929;-71
2023/05/03 16:07:00;;;;;;;;;;;31.30;63.70;;;;;;8354659;28;19931;-71
2023/05/03 16:11:01;;;;;;;;;;;31.70;63.50;;;;;;8365399;28;19929;-71
2023/05/03 16:15:04;;;;;;;;;;;31.90;62.10;;;;;;8363082;28;20400;-71
2023/05/03 16:19:07;;;;;;;;;;;32.00;61.50;;;;;;8362180;28;20276;-71
2023/05/03 16:23:09;;;;;;;;;;;32.00;59.20;;;;;;8373104;28;19933;-71
2023/05/03 16:27:10;;;;;;;;;;;32.20;57.80;;;;;;8359647;28;19928;-71
2023/05/03 16:31:12;;;;;;;;;;;32.20;56.90;;;;;;8364425;28;19932;-71
2023/05/03 16:35:14;;;;;;;;;;;32.30;54.20;;;;;;8364387;28;20208;-71
2023/05/03 16:39:16;;;;;;;;;;;32.50;53.10;;;;;;8366861;28;19982;-71
2023/05/03 16:43:18;;;;;;;;;;;32.60;51.70;;;;;;8360696;28;19925;-71
2023/05/03 16:47:20;;;;;;;;;;;32.70;50.80;;;;;;8358055;28;19925;-71
2023/05/03 16:51:22;;;;;;;;;;;32.80;49.90;;;;;;8360807;28;19928;-71
2023/05/03 16:55:24;;;;;;;;;;;32.50;49.00;;;;;;8363782;28;20362;-71
2023/05/03 16:59:26;;;;;;;;;;;32.40;46.90;;;;;;8358888;28;19924;-71
2023/05/03 17:03:28;;;;;;;;;;;32.30;46.40;;;;;;8358839;28;20395;-71
2023/05/03 17:07:31;;;;;;;;;;;32.30;45.90;;;;;;8351968;28;20308;-71
2023/05/03 17:11:34;;;;;;;;;;;32.00;45.10;;;;;;8360315;28;19925;-71
2023/05/03 17:15:36;;;;;;;;;;;31.60;44.40;;;;;;8365096;28;19932;-71
2023/05/03 17:19:38;;;;;;;;;;;31.10;43.50;;;;;;8365586;28;20023;-71
2023/05/03 17:23:39;;;;;;;;;;;30.20;42.30;;;;;;8358130;28;20362;-71
2023/05/03 17:27:42;;;;;;;;;;;29.10;41.00;;;;;;8341521;28;20379;-71
2023/05/03 17:31:43;;;;;;;;;;;28.10;40.20;;;;;;8359354;28;20015;-71
2023/05/03 17:35:45;;;;;;;;;;;27.20;39.50;;;;;;8358374;28;19929;-71
2023/05/03 17:39:47;;;;;;;;;;;26.40;38.90;;;;;;8359044;28;20525;-71
2023/05/03 17:43:48;;;;;;;;;;;25.70;38.70;;;;;;8362616;28;20028;-71
2023/05/03 17:47:52;;;;;;;;;;;25.20;38.60;;;;;;8361649;28;19976;-71
2023/05/03 17:51:53;;;;;;;;;;;24.70;38.40;;;;;;8364283;28;19932;-71
2023/05/03 17:55:55;;;;;;;;;;;24.20;38.10;;;;;;8362604;28;19931;-71
2023/05/03 17:59:57;;;;;;;;;;;23.80;38.00;;;;;;8366385;28;20075;-70
2023/05/03 18:03:58;;;;;;;;;;;23.50;37.90;;;;;;8363292;28;19939;-71
2023/05/03 18:08:00;;;;;;;;;;;23.20;37.90;;;;;;8372966;28;19991;-71
2023/05/03 18:12:02;;;;;;;;;;;22.90;38.10;;;;;;8355917;28;20380;-71
2023/05/03 18:16:06;;;;;;;;;;;22.60;37.90;;;;;;8355944;28;20931;-71
2023/05/03 18:20:08;;;;;;;;;;;22.30;38.00;;;;;;8357542;28;19932;-71
2023/05/03 18:24:10;;;;;;;;;;;22.10;37.90;;;;;;8343548;28;20484;-70
2023/05/03 18:28:11;;;;;;;;;;;21.90;38.00;;;;;;8373909;28;19934;-70
2023/05/03 18:32:13;;;;;;;;;;;21.70;38.10;;;;;;8362288;28;19937;-71
2023/05/03 18:36:15;;;;;;;;;;;21.50;38.40;;;;;;8360852;28;19976;-70
2023/05/03 18:40:17;;;;;;;;;;;21.30;38.50;;;;;;8361547;28;19935;-70
2023/05/03 18:44:22;;;;;;;;;;;21.20;38.60;;;;;;8358956;28;19925;-70
2023/05/03 18:48:24;;;;;;;;;;;21.00;38.70;;;;;;8354897;28;19929;-71
2023/05/03 18:52:26;;;;;;;;;;;20.80;38.70;;;;;;8358307;28;19928;-70
2023/05/03 18:56:29;;;;;;;;;;;20.60;38.80;;;;;;8360185;28;19933;-70
2023/05/03 19:00:31;;;;;;;;;;;20.50;38.90;;;;;;8359856;28;20299;-70
2023/05/03 19:04:33;;;;;;;;;;;20.30;39.10;;;;;;8356539;28;19960;-70
2023/05/03 19:08:34;;;;;;;;;;;20.20;39.10;;;;;;8372996;28;19924;-70
2023/05/03 19:12:36;;;;;;;;;;;20.00;39.20;;;;;;8356300;28;19933;-70
2023/05/03 19:16:38;;;;;;;;;;;19.80;39.20;;;;;;8358633;28;19929;-70
2023/05/03 19:20:39;;;;;;;;;;;19.70;39.20;;;;;;8354465;28;19967;-70
2023/05/03 19:24:42;;;;;;;;;;;19.50;39.30;;;;;;8361866;28;20376;-70
2023/05/03 19:28:46;;;;;;;;;;;19.30;39.50;;;;;;8356741;28;19933;-70
2023/05/03 19:32:47;;;;;;;;;;;19.20;39.60;;;;;;8363853;28;19934;-70
2023/05/03 19:36:49;;;;;;;;;;;19.00;39.60;;;;;;8367148;28;19929;-70
2023/05/03 19:40:58;;;;;;;;;;;18.80;39.70;;;;;;8354529;28;20377;-70
2023/05/03 19:45:01;;;;;;;;;;;18.70;39.90;;;;;;8380390;28;19925;-70
2023/05/03 19:49:02;;;;;;;;;;;18.50;39.80;;;;;;8357285;28;19925;-70
2023/05/03 19:53:04;;;;;;;;;;;18.40;39.90;;;;;;8368278;28;19985;-70
2023/05/03 19:57:06;;;;;;;;;;;18.30;39.90;;;;;;8367362;28;20075;-70
2023/05/03 20:01:08;;;;;;;;;;;18.10;40.00;;;;;;8349738;28;19933;-70
2023/05/03 20:05:09;;;;;;;;;;;17.90;40.10;;;;;;8365534;28;19982;-70
2023/05/03 20:09:11;;;;;;;;;;;17.80;40.20;;;;;;8363568;28;20292;-70
2023/05/03 20:13:13;;;;;;;;;;;17.70;40.30;;;;;;8359052;28;19940;-70
2023/05/03 20:17:15;;;;;;;;;;;17.60;40.40;;;;;;8366513;28;20288;-70
2023/05/03 20:21:16;;;;;;;;;;;17.50;40.60;;;;;;8359186;28;19933;-70
2023/05/03 20:25:18;;;;;;;;;;;17.40;40.70;;;;;;8355010;28;20331;-70
2023/05/03 20:29:20;;;;;;;;;;;17.30;40.80;;;;;;8366610;28;19931;-70
2023/05/03 20:33:21;;;;;;;;;;;17.20;40.70;;;;;;8361426;28;20317;-70
2023/05/03 20:37:23;;;;;;;;;;;17.10;41.30;;;;;;8347285;28;20023;-70
2023/05/03 20:41:25;;;;;;;;;;;16.90;40.80;;;;;;8366527;28;20292;-70
2023/05/03 20:45:26;;;;;;;;;;;16.80;41.10;;;;;;8366866;28;19939;-70
2023/05/03 20:49:28;;;;;;;;;;;16.70;41.60;;;;;;8355398;28;19933;-70
2023/05/03 20:53:30;;;;;;;;;;;16.60;41.90;;;;;;8359507;28;19967;-70
2023/05/03 20:57:32;;;;;;;;;;;16.40;42.00;;;;;;8348031;28;19924;-70
2023/05/03 21:01:37;;;;;;;;;;;16.30;42.40;;;;;;8369727;28;19979;-70
2023/05/03 21:05:38;;;;;;;;;;;16.10;42.60;;;;;;8386132;28;19980;-70
2023/05/03 21:09:40;;;;;;;;;;;16.00;42.60;;;;;;8394886;28;20288;-70
2023/05/03 21:18:45;;;;;;;;;;;15.80;42.80;;;;;;8399279;28;20402;-70
2023/05/03 21:22:47;;;;;;;;;;;15.70;43.30;;;;;;8397768;28;19932;-70
2023/05/03 21:26:49;;;;;;;;;;;15.60;43.60;;;;;;8387925;28;20303;-70
2023/05/03 21:30:52;;;;;;;;;;;15.40;43.70;;;;;;8415482;28;20279;-70
2023/05/03 21:34:53;;;;;;;;;;;15.40;44.00;;;;;;8412650;28;19924;-70
2023/05/03 21:38:55;;;;;;;;;;;15.20;44.00;;;;;;8398535;28;20003;-70
2023/05/03 21:42:57;;;;;;;;;;;15.10;44.20;;;;;;8384072;28;20298;-70
2023/05/03 21:46:58;;;;;;;;;;;15.10;44.60;;;;;;8398453;28;20399;-70
2023/05/03 21:51:00;;;;;;;;;;;15.00;44.80;;;;;;8391032;28;19928;-70
2023/05/03 21:55:02;;;;;;;;;;;14.90;45.00;;;;;;8395740;28;19967;-70
2023/05/03 21:59:04;;;;;;;;;;;14.80;45.30;;;;;;8392410;28;19928;-70
2023/05/03 22:03:06;;;;;;;;;;;14.70;45.40;;;;;;8385467;28;19932;-70
2023/05/03 22:07:08;;;;;;;;;;;14.60;45.60;;;;;;8401759;28;20383;-70
2023/05/03 22:11:10;;;;;;;;;;;14.50;45.90;;;;;;8384713;28;19931;-70
2023/05/03 22:15:12;;;;;;;;;;;14.40;45.80;;;;;;8401604;28;20182;-70
2023/05/03 22:19:13;;;;;;;;;;;14.30;46.10;;;;;;8364298;28;19924;-70
2023/05/03 22:23:15;;;;;;;;;;;14.30;46.20;;;;;;8383551;28;19928;-70
2023/05/03 22:27:17;;;;;;;;;;;14.20;46.50;;;;;;8393152;28;19967;-70
2023/05/03 22:31:19;;;;;;;;;;;14.10;46.90;;;;;;8393187;28;20384;-70
2023/05/03 22:35:21;;;;;;;;;;;14.00;47.00;;;;;;8380908;28;19979;-70
2023/05/03 22:39:22;;;;;;;;;;;13.90;47.20;;;;;;8390308;28;19924;-70
2023/05/03 22:43:24;;;;;;;;;;;13.80;47.30;;;;;;8387716;28;19972;-70
2023/05/03 22:47:26;;;;;;;;;;;13.70;47.30;;;;;;8387111;28;20016;-70
2023/05/03 22:51:28;;;;;;;;;;;13.60;47.90;;;;;;8390157;28;20334;-70
2023/05/03 22:55:29;;;;;;;;;;;13.60;47.90;;;;;;8391053;28;20399;-70
2023/05/03 22:59:31;;;;;;;;;;;13.50;48.10;;;;;;8403650;28;19971;-70
2023/05/03 23:03:33;;;;;;;;;;;13.40;48.70;;;;;;8403962;28;19924;-70
2023/05/03 23:07:34;;;;;;;;;;;13.30;48.80;;;;;;8379117;28;20227;-70
2023/05/03 23:11:36;;;;;;;;;;;13.20;49.40;;;;;;8390469;28;20355;-70
2023/05/03 23:15:37;;;;;;;;;;;13.10;49.00;;;;;;8377655;28;19934;-70
2023/05/03 23:19:39;;;;;;;;;;;13.10;49.40;;;;;;8387968;28;19971;-70
2023/05/03 23:23:41;;;;;;;;;;;13.00;49.30;;;;;;8390432;28;19924;-70
2023/05/03 23:27:43;;;;;;;;;;;12.90;50.00;;;;;;8404697;28;19931;-70
2023/05/03 23:31:45;;;;;;;;;;;12.80;49.90;;;;;;8406038;28;19939;-70
2023/05/03 23:35:47;;;;;;;;;;;12.70;50.70;;;;;;8391763;28;20399;-70
2023/05/03 23:39:49;;;;;;;;;;;12.70;50.20;;;;;;8384496;28;20570;-70
2023/05/03 23:43:50;;;;;;;;;;;12.60;50.50;;;;;;8397175;28;19928;-70
2023/05/03 23:47:52;;;;;;;;;;;12.60;50.80;;;;;;8406943;28;19925;-70
2023/05/03 23:51:54;;;;;;;;;;;12.50;50.90;;;;;;8396265;28;19924;-70
2023/05/03 23:55:56;;;;;;;;;;;12.40;50.90;;;;;;8390544;28;19924;-70
2023/05/03 23:59:57;;;;;;;;;;;12.40;51.40;;;;;;8386437;28;19931;-70
